Time;durP1;ratioP1;P1;durP2;ratioP2;P2;SDS_P1;SDS_P2;PMS_P1;PMS_P2;Temp;Humidity;BMP_temperature;BMP_pressure;BME280_temperature;BME280_humidity;BME280_pressure;Samples;Min_cycle;Max_cycle;Signal;HPM_P1;HPM_P2
2023/03/11 00:00:45;;;;;;;0.93;0.40;;;;;;;6.67;46.11;99608.16;5071755;28;20217;-70
2023/03/11 00:03:16;;;;;;;2.40;0.43;;;;;;;6.60;46.08;99618.41;5077203;28;21308;-70
2023/03/11 00:05:46;;;;;;;2.93;0.80;;;;;;;6.51;46.21;99616.63;5075866;28;20619;-69
2023/03/11 00:08:16;;;;;;;1.70;0.37;;;;;;;6.47;46.37;99598.63;5073057;28;21229;-69
2023/03/11 00:10:46;;;;;;;1.57;0.40;;;;;;;6.36;46.49;99613.63;5071760;28;20290;-69
2023/03/11 00:13:15;;;;;;;1.90;0.40;;;;;;;6.27;46.91;99603.94;5074057;28;20221;-70
2023/03/11 00:15:45;;;;;;;2.53;0.60;;;;;;;6.32;46.96;99609.63;5073511;28;20203;-71
2023/03/11 00:18:13;;;;;;;1.03;0.50;;;;;;;6.26;47.25;99614.59;5074649;28;20256;-70
2023/03/11 00:20:44;;;;;;;2.43;0.50;;;;;;;6.20;47.29;99602.03;5077216;28;20240;-71
2023/03/11 00:23:14;;;;;;;3.47;0.50;;;;;;;6.17;47.69;99629.44;5075349;28;20634;-71
2023/03/11 00:25:44;;;;;;;3.00;0.43;;;;;;;6.13;47.25;99595.66;5075507;28;20268;-70
2023/03/11 00:28:13;;;;;;;4.53;0.40;;;;;;;6.09;47.83;99616.16;5076352;28;20921;-69
2023/03/11 00:30:42;;;;;;;4.80;0.60;;;;;;;6.10;47.97;99606.47;5075482;28;20294;-70
2023/03/11 00:33:12;;;;;;;1.90;0.60;;;;;;;6.08;47.92;99616.28;5073511;28;20215;-69
2023/03/11 00:35:40;;;;;;;3.23;0.67;;;;;;;6.05;48.05;99630.59;5078079;28;20682;-71
2023/03/11 00:38:12;;;;;;;5.50;0.50;;;;;;;6.03;48.37;99622.00;5074706;28;20203;-70
2023/03/11 00:40:41;;;;;;;1.87;0.60;;;;;;;6.01;48.14;99634.44;5076233;28;20211;-70
2023/03/11 00:43:09;;;;;;;3.67;0.50;;;;;;;6.01;48.42;99637.91;5076020;28;20237;-70
2023/03/11 00:45:37;;;;;;;2.10;0.77;;;;;;;6.02;48.54;99636.94;5076652;28;20306;-69
2023/03/11 00:48:06;;;;;;;1.43;0.60;;;;;;;6.01;48.48;99650.25;5074683;28;20213;-70
2023/03/11 00:50:37;;;;;;;2.37;0.50;;;;;;;6.03;48.40;99637.78;5072491;28;20206;-70
2023/03/11 00:53:05;;;;;;;2.87;0.63;;;;;;;6.05;48.34;99646.38;5074625;28;20217;-70
2023/03/11 00:55:34;;;;;;;2.63;1.07;;;;;;;6.00;48.70;99641.50;5071866;28;20268;-71
2023/03/11 00:58:06;;;;;;;2.83;0.40;;;;;;;5.99;48.56;99646.91;5073183;28;20222;-72
2023/03/11 01:00:34;;;;;;;2.40;0.60;;;;;;;5.94;48.83;99651.78;5073698;28;20211;-71
2023/03/11 01:03:02;;;;;;;2.80;0.63;;;;;;;5.89;48.85;99656.63;5074353;28;20768;-70
2023/03/11 01:05:33;;;;;;;3.00;0.67;;;;;;;5.94;49.04;99660.50;5073451;28;20221;-70
2023/03/11 01:08:01;;;;;;;5.43;0.97;;;;;;;5.91;49.22;99658.13;5074331;28;21135;-71
2023/03/11 01:10:30;;;;;;;4.93;1.00;;;;;;;5.88;49.40;99654.97;5071204;28;20283;-70
2023/03/11 01:12:57;;;;;;;3.00;0.43;;;;;;;5.90;49.28;99660.91;5072844;28;20207;-71
2023/03/11 01:15:29;;;;;;;1.07;0.40;;;;;;;5.88;48.92;99644.44;5072947;28;20306;-69
2023/03/11 01:17:57;;;;;;;2.50;0.50;;;;;;;5.77;49.23;99648.00;5075249;28;20300;-69
2023/03/11 01:20:24;;;;;;;7.10;0.80;;;;;;;5.71;49.67;99645.91;5073965;28;20246;-69
2023/03/11 01:22:52;;;;;;;2.97;0.60;;;;;;;5.68;49.74;99651.44;5076102;28;20717;-69
2023/03/11 01:25:22;;;;;;;0.80;0.30;;;;;;;5.75;49.73;99643.84;5078160;28;20892;-69
2023/03/11 01:27:50;;;;;;;1.80;0.60;;;;;;;5.82;49.57;99643.13;5079949;28;20748;-69
2023/03/11 01:30:20;;;;;;;2.83;0.73;;;;;;;5.85;49.31;99648.13;5075976;28;20329;-70
2023/03/11 01:32:50;;;;;;;2.63;0.50;;;;;;;5.82;49.40;99639.69;5079322;28;20254;-70
2023/03/11 01:35:20;;;;;;;3.10;0.50;;;;;;;5.83;49.54;99641.34;5078863;28;20218;-69
2023/03/11 01:37:47;;;;;;;4.83;0.87;;;;;;;5.83;49.87;99646.59;5079209;28;20262;-69
2023/03/11 01:40:20;;;;;;;3.37;0.90;;;;;;;5.85;49.39;99649.94;5079420;28;20573;-70
2023/03/11 01:42:48;;;;;;;3.20;1.00;;;;;;;5.86;49.20;99648.97;5080206;28;20225;-70
2023/03/11 01:45:31;;;;;;;3.57;0.73;;;;;;;5.86;49.51;99659.50;5077684;28;20210;-72
2023/03/11 01:48:00;;;;;;;4.20;0.60;;;;;;;5.89;49.69;99669.78;5078378;28;20210;-69
2023/03/11 01:50:34;;;;;;;5.43;0.70;;;;;;;5.89;49.62;99673.22;5076771;28;20306;-69
2023/03/11 01:53:03;;;;;;;3.43;0.67;;;;;;;5.97;49.56;99685.72;5077953;28;20710;-70
2023/03/11 01:55:31;;;;;;;5.53;0.63;;;;;;;5.93;49.55;99679.88;5075551;28;20215;-70
2023/03/11 01:58:02;;;;;;;6.30;1.03;;;;;;;5.91;49.71;99686.25;5078873;28;20211;-70
2023/03/11 02:00:30;;;;;;;3.80;0.50;;;;;;;5.89;49.96;99693.47;5075416;28;20630;-70
2023/03/11 02:03:01;;;;;;;2.37;0.60;;;;;;;5.89;49.56;99704.00;5075872;28;20686;-71
2023/03/11 02:05:29;;;;;;;2.13;0.60;;;;;;;5.91;49.51;99702.03;5081243;28;20207;-70
2023/03/11 02:07:58;;;;;;;4.23;0.60;;;;;;;5.92;49.53;99693.16;5074244;28;20264;-70
2023/03/11 02:10:26;;;;;;;2.57;0.60;;;;;;;5.92;49.59;99703.69;5080317;28;20215;-70
2023/03/11 02:12:53;;;;;;;3.33;0.57;;;;;;;6.01;49.52;99702.88;5077227;28;20208;-70
2023/03/11 02:15:21;;;;;;;2.40;0.70;;;;;;;6.04;49.44;99697.34;5077722;28;20899;-70
2023/03/11 02:17:49;;;;;;;2.40;0.80;;;;;;;6.00;49.30;99695.94;5077312;28;20211;-74
2023/03/11 02:20:32;;;;;;;8.47;1.00;;;;;;;5.98;49.45;99684.75;5077449;28;20302;-70
2023/03/11 02:23:01;;;;;;;4.93;1.00;;;;;;;5.85;49.42;99681.50;5079071;28;20230;-70
2023/03/11 02:25:36;;;;;;;2.90;0.80;;;;;;;5.84;49.58;99679.84;5078163;28;20242;-70
2023/03/11 02:28:09;;;;;;;4.13;0.70;;;;;;;5.74;49.84;99674.56;5077996;28;20556;-70
2023/03/11 02:30:40;;;;;;;5.43;0.90;;;;;;;5.71;49.94;99676.66;5077011;28;20865;-70
2023/03/11 02:33:09;;;;;;;4.87;1.20;;;;;;;5.60;50.04;99673.19;5079986;28;20204;-69
2023/03/11 02:35:37;;;;;;;3.90;0.80;;;;;;;5.57;50.15;99662.91;5071472;28;20210;-70
2023/03/11 02:38:05;;;;;;;3.87;0.87;;;;;;;5.58;50.22;99674.28;5081320;28;21936;-69
2023/03/11 02:40:41;;;;;;;7.77;0.90;;;;;;;5.53;49.89;99679.94;5075846;28;20209;-70
2023/03/11 02:43:14;;;;;;;2.03;0.60;;;;;;;5.53;50.35;99684.38;5075492;28;20214;-71
2023/03/11 02:45:46;;;;;;;4.47;0.63;;;;;;;5.58;50.20;99690.88;5079089;28;20216;-70
2023/03/11 02:48:15;;;;;;;4.03;0.80;;;;;;;5.57;50.27;99689.22;5080828;28;20798;-69
2023/03/11 02:50:45;;;;;;;4.37;0.70;;;;;;;5.62;50.03;99694.91;5080754;28;20218;-69
2023/03/11 02:53:14;;;;;;;5.17;0.87;;;;;;;5.68;49.83;99702.25;5077865;28;20306;-69
2023/03/11 02:55:41;;;;;;;5.93;0.97;;;;;;;5.68;49.85;99702.25;5076927;28;20272;-69
2023/03/11 02:58:10;;;;;;;2.97;0.70;;;;;;;5.73;49.98;99708.91;5077840;28;20202;-70
2023/03/11 03:00:38;;;;;;;2.40;0.70;;;;;;;5.76;49.74;99703.38;5078592;28;20231;-70
2023/03/11 03:03:06;;;;;;;4.70;0.73;;;;;;;5.65;49.54;99705.16;5075181;28;20342;-71
2023/03/11 03:05:33;;;;;;;4.43;0.73;;;;;;;5.59;49.45;99700.44;5077816;28;20244;-70
2023/03/11 03:08:02;;;;;;;2.07;0.60;;;;;;;5.51;49.89;99700.28;5075830;28;20212;-70
2023/03/11 03:10:29;;;;;;;7.10;0.80;;;;;;;5.51;50.09;99700.28;5073790;28;20207;-70
2023/03/11 03:12:57;;;;;;;3.63;0.63;;;;;;;5.54;50.12;99704.44;5076954;28;20305;-69
2023/03/11 03:15:27;;;;;;;5.93;0.80;;;;;;;5.56;50.38;99713.84;5075486;28;20206;-70
2023/03/11 03:17:54;;;;;;;3.73;0.80;;;;;;;5.50;50.16;99717.03;5075955;28;20207;-70
2023/03/11 03:20:22;;;;;;;5.57;1.00;;;;;;;5.45;50.25;99723.66;5073530;28;20668;-69
2023/03/11 03:22:51;;;;;;;4.10;0.77;;;;;;;5.39;50.44;99727.63;5073300;28;21150;-70
2023/03/11 03:25:18;;;;;;;7.77;1.77;;;;;;;5.45;50.57;99727.13;5074050;28;20207;-71
2023/03/11 03:27:46;;;;;;;7.13;0.87;;;;;;;5.42;50.82;99723.91;5075481;28;20250;-71
2023/03/11 03:30:14;;;;;;;7.17;0.90;;;;;;;5.40;51.34;99726.66;5072362;28;20226;-70
2023/03/11 03:32:43;;;;;;;5.80;0.90;;;;;;;5.42;51.47;99724.75;5073881;28;20216;-71
2023/03/11 03:35:11;;;;;;;3.67;0.90;;;;;;;5.37;51.55;99726.94;5077312;28;20227;-69
2023/03/11 03:37:39;;;;;;;5.30;0.70;;;;;;;5.40;51.65;99731.94;5073350;28;20234;-70
2023/03/11 03:40:09;;;;;;;2.70;0.60;;;;;;;5.28;52.05;99740.88;5073123;28;20260;-70
2023/03/11 03:42:37;;;;;;;7.43;1.20;;;;;;;5.21;52.49;99737.09;5077952;28;20206;-71
2023/03/11 03:45:07;;;;;;;4.33;0.90;;;;;;;5.11;52.98;99744.09;5076437;28;20215;-71
2023/03/11 03:47:36;;;;;;;3.03;1.17;;;;;;;5.10;53.15;99742.47;5076106;28;20210;-70
2023/03/11 03:50:07;;;;;;;3.47;0.60;;;;;;;5.13;53.33;99742.19;5074943;28;20217;-70
2023/03/11 03:52:36;;;;;;;4.37;0.87;;;;;;;5.23;52.80;99749.16;5074216;28;20224;-70
2023/03/11 03:55:05;;;;;;;3.80;0.70;;;;;;;5.18;52.87;99755.78;5074265;28;20211;-70
2023/03/11 03:57:33;;;;;;;6.93;0.93;;;;;;;5.05;53.61;99749.91;5074192;28;20214;-71
2023/03/11 04:00:01;;;;;;;4.90;0.70;;;;;;;5.05;54.07;99749.91;5074381;28;20218;-70
2023/03/11 04:02:28;;;;;;;3.87;0.80;;;;;;;5.01;53.85;99751.13;5075905;28;20667;-70
2023/03/11 04:04:56;;;;;;;7.33;0.73;;;;;;;5.04;54.06;99756.09;5073499;28;20247;-69
2023/03/11 04:07:26;;;;;;;6.80;0.90;;;;;;;5.12;53.76;99766.78;5074921;28;20231;-70
2023/03/11 04:09:53;;;;;;;3.37;0.83;;;;;;;5.06;53.79;99755.03;5074741;28;20210;-70
2023/03/11 04:12:21;;;;;;;6.47;0.90;;;;;;;5.01;53.89;99761.63;5073673;28;20680;-70
2023/03/11 04:14:49;;;;;;;10.07;1.53;;;;;;;4.93;54.27;99757.84;5072168;28;20214;-70
2023/03/11 04:17:17;;;;;;;6.20;1.03;;;;;;;4.89;54.51;99766.97;5074368;28;20674;-71
2023/03/11 04:19:45;;;;;;;8.70;1.17;;;;;;;5.00;54.38;99754.72;5074628;28;20203;-71
2023/03/11 04:22:13;;;;;;;5.87;0.93;;;;;;;5.09;53.68;99767.91;5075607;28;20222;-69
2023/03/11 04:24:42;;;;;;;6.30;1.10;;;;;;;5.08;53.58;99763.63;5075834;28;20668;-70
2023/03/11 04:27:09;;;;;;;3.93;0.80;;;;;;;5.10;53.61;99766.13;5074231;28;20243;-70
2023/03/11 04:29:37;;;;;;;3.93;0.87;;;;;;;5.01;53.81;99765.09;5072048;28;20220;-71
2023/03/11 04:32:06;;;;;;;5.70;0.83;;;;;;;4.97;54.03;99770.72;5074366;28;20213;-70
2023/03/11 04:34:33;;;;;;;8.70;1.50;;;;;;;4.93;54.37;99767.53;5056790;28;20203;-71
2023/03/11 04:37:01;;;;;;;3.60;1.13;;;;;;;4.92;54.35;99771.13;5074368;28;20694;-70
2023/03/11 04:39:29;;;;;;;4.87;0.97;;;;;;;4.89;54.49;99763.50;5075014;28;20210;-71
2023/03/11 04:41:58;;;;;;;5.00;1.73;;;;;;;4.84;54.92;99758.63;5074430;28;20211;-71
2023/03/11 04:44:26;;;;;;;6.20;1.20;;;;;;;4.78;55.10;99753.88;5073852;28;20311;-71
2023/03/11 04:46:53;;;;;;;8.67;1.30;;;;;;;4.78;54.98;99759.13;5073187;28;20752;-71
2023/03/11 04:49:21;;;;;;;9.20;1.13;;;;;;;4.71;55.47;99763.25;5074166;28;20229;-70
2023/03/11 04:51:49;;;;;;;9.30;0.90;;;;;;;4.72;55.36;99767.53;5076891;28;20302;-70
2023/03/11 04:54:17;;;;;;;4.40;0.80;;;;;;;4.73;55.40;99771.00;5073755;28;20688;-70
2023/03/11 04:56:45;;;;;;;8.10;1.33;;;;;;;4.70;55.41;99781.75;5074452;28;20214;-70
2023/03/11 04:59:14;;;;;;;7.37;1.03;;;;;;;4.77;55.35;99782.91;5075783;28;20308;-71
2023/03/11 05:01:41;;;;;;;11.73;1.27;;;;;;;4.88;55.00;99786.31;5081893;28;20225;-70
2023/03/11 05:04:10;;;;;;;6.87;1.20;;;;;;;4.92;54.82;99789.53;5080848;28;20558;-71
2023/03/11 05:06:38;;;;;;;3.83;0.70;;;;;;;4.91;54.79;99790.47;5081363;28;20230;-70
2023/03/11 05:09:09;;;;;;;6.00;0.90;;;;;;;4.78;55.00;99793.28;5080229;28;20201;-72
2023/03/11 05:11:36;;;;;;;3.67;0.80;;;;;;;4.71;55.19;99783.41;5080855;28;20704;-70
2023/03/11 05:14:04;;;;;;;5.73;1.13;;;;;;;4.71;55.07;99786.03;5080477;28;20659;-70
2023/03/11 05:16:33;;;;;;;10.57;1.30;;;;;;;4.61;55.62;99785.13;5079598;28;20268;-70
2023/03/11 05:19:29;;;;;;;5.53;1.20;;;;;;;4.64;55.42;99793.59;5079827;28;20206;-70
2023/03/11 05:21:48;;;;;;;8.47;1.23;;;;;;;4.62;55.36;99786.81;5077389;28;20218;-70
2023/03/11 05:24:16;;;;;;;6.00;1.10;;;;;;;4.61;55.19;99796.47;5079659;28;20240;-71
2023/03/11 05:26:44;;;;;;;5.23;1.00;;;;;;;4.60;55.61;99797.44;5078908;28;20256;-71
2023/03/11 05:29:15;;;;;;;3.83;0.80;;;;;;;4.56;55.69;99803.91;5079068;28;20222;-69
2023/03/11 05:31:44;;;;;;;9.90;1.20;;;;;;;4.56;55.53;99805.72;5078648;28;20311;-71
2023/03/11 05:34:11;;;;;;;10.60;1.30;;;;;;;4.62;55.63;99803.41;5080138;28;20206;-71
2023/03/11 05:36:39;;;;;;;5.07;0.80;;;;;;;4.55;55.89;99802.25;5077688;28;20595;-70
2023/03/11 05:39:07;;;;;;;5.80;1.00;;;;;;;4.52;55.75;99816.44;5078451;28;20597;-69
2023/03/11 05:41:35;;;;;;;6.83;1.53;;;;;;;4.46;55.83;99819.59;5077575;28;20272;-70
2023/03/11 05:44:02;;;;;;;4.70;0.90;;;;;;;4.44;56.18;99812.78;5079752;28;20226;-69
2023/03/11 05:46:32;;;;;;;10.17;1.27;;;;;;;4.40;56.54;99808.72;5078567;28;20351;-70
2023/03/11 05:49:01;;;;;;;5.47;1.37;;;;;;;4.34;56.55;99812.69;5080086;28;20673;-69
2023/03/11 05:51:29;;;;;;;5.30;1.00;;;;;;;4.32;56.97;99819.84;5077584;28;20214;-70
2023/03/11 05:53:57;;;;;;;2.87;1.00;;;;;;;4.36;56.83;99815.19;5078499;28;20226;-70
2023/03/11 05:56:25;;;;;;;4.20;1.00;;;;;;;4.27;56.97;99815.94;5077094;28;20214;-70
2023/03/11 05:58:52;;;;;;;7.20;2.37;;;;;;;4.32;57.17;99811.97;5078608;28;20504;-70
2023/03/11 06:01:20;;;;;;;4.43;1.20;;;;;;;4.30;57.08;99815.69;5078016;28;20221;-69
2023/03/11 06:03:48;;;;;;;12.50;1.40;;;;;;;4.27;57.24;99813.31;5079089;28;20206;-70
2023/03/11 06:06:17;;;;;;;7.30;0.80;;;;;;;4.27;57.44;99821.19;5079833;28;20245;-71
2023/03/11 06:08:48;;;;;;;6.37;1.30;;;;;;;4.20;57.25;99828.72;5079326;28;20252;-75
2023/03/11 06:11:17;;;;;;;4.33;0.93;;;;;;;4.17;57.19;99826.34;5073039;28;20215;-71
2023/03/11 06:13:45;;;;;;;7.13;1.27;;;;;;;4.24;56.94;99826.69;5076400;28;20206;-71
2023/03/11 06:16:13;;;;;;;4.87;0.87;;;;;;;4.34;56.43;99835.47;5074129;28;20210;-70
2023/03/11 06:18:40;;;;;;;4.10;0.97;;;;;;;4.33;56.38;99836.44;5076631;28;20225;-70
2023/03/11 06:21:15;;;;;;;3.10;0.90;;;;;;;4.30;56.51;99831.44;5077170;28;20245;-71
2023/03/11 06:23:44;;;;;;;8.93;1.03;;;;;;;4.34;56.56;99838.09;5075877;28;20647;-71
2023/03/11 06:26:14;;;;;;;3.30;1.17;;;;;;;4.38;56.33;99844.78;5073867;28;20246;-71
2023/03/11 06:28:42;;;;;;;4.83;1.83;;;;;;;4.39;56.30;99841.22;5073269;28;20309;-70
2023/03/11 06:31:12;;;;;;;7.13;1.47;;;;;;;4.43;55.99;99847.88;5077415;28;20217;-71
2023/03/11 06:33:40;;;;;;;4.43;1.00;;;;;;;4.49;55.61;99852.59;5076415;28;20314;-70
2023/03/11 06:36:08;;;;;;;7.43;1.10;;;;;;;4.57;55.31;99858.09;5074906;28;20238;-70
2023/03/11 06:38:36;;;;;;;6.97;1.43;;;;;;;4.60;55.24;99860.44;5074889;28;20209;-71
2023/03/11 06:41:07;;;;;;;6.53;0.93;;;;;;;4.56;55.23;99874.81;5075274;28;20210;-70
2023/03/11 06:43:35;;;;;;;8.53;1.30;;;;;;;4.61;55.06;99882.31;5073990;28;20206;-70
2023/03/11 06:46:09;;;;;;;6.50;0.90;;;;;;;4.66;55.09;99886.22;5078508;28;20349;-71
2023/03/11 06:48:37;;;;;;;7.33;1.00;;;;;;;4.75;54.75;99890.72;5074703;28;20229;-70
2023/03/11 06:51:05;;;;;;;10.20;1.00;;;;;;;4.70;54.85;99892.91;5075603;28;20782;-70
2023/03/11 06:53:33;;;;;;;6.47;0.93;;;;;;;4.72;54.78;99896.22;5077393;28;20209;-69
2023/03/11 06:56:02;;;;;;;6.40;1.50;;;;;;;4.68;54.88;99902.69;5075234;28;20208;-70
2023/03/11 06:58:33;;;;;;;7.73;0.90;;;;;;;4.76;54.63;99902.88;5078811;28;20209;-69
2023/03/11 07:01:01;;;;;;;7.33;1.20;;;;;;;4.74;54.70;99901.38;5075490;28;20779;-70
2023/03/11 07:03:30;;;;;;;8.67;1.40;;;;;;;4.80;54.38;99908.75;5073335;28;20214;-69
2023/03/11 07:05:58;;;;;;;10.33;0.90;;;;;;;4.79;54.16;99907.91;5076914;28;20230;-70
2023/03/11 07:08:26;;;;;;;5.23;1.10;;;;;;;4.80;54.05;99906.94;5075885;28;20209;-70
2023/03/11 07:11:02;;;;;;;6.07;0.90;;;;;;;4.86;54.22;99914.31;5077320;28;20214;-70
2023/03/11 07:13:32;;;;;;;5.00;1.20;;;;;;;4.91;54.16;99911.34;5077939;28;20213;-70
2023/03/11 07:16:01;;;;;;;7.97;0.83;;;;;;;4.96;53.95;99918.81;5077770;28;20224;-71
2023/03/11 07:18:29;;;;;;;6.27;1.73;;;;;;;4.96;53.95;99921.44;5075998;28;20211;-70
2023/03/11 07:20:57;;;;;;;8.23;1.37;;;;;;;5.00;53.95;99921.09;5076345;28;20207;-70
2023/03/11 07:23:24;;;;;;;6.43;1.50;;;;;;;5.08;54.04;99923.91;5076263;28;20220;-70
2023/03/11 07:25:54;;;;;;;9.00;2.10;;;;;;;5.14;53.32;99927.81;5073642;28;20625;-71
2023/03/11 07:28:22;;;;;;;5.63;1.13;;;;;;;5.17;53.23;99931.03;5075937;28;20577;-71
2023/03/11 07:30:52;;;;;;;8.20;1.37;;;;;;;5.23;53.48;99937.56;5077114;28;20230;-70
2023/03/11 07:33:22;;;;;;;8.10;1.10;;;;;;;5.29;53.18;99939.69;5076131;28;20219;-70
2023/03/11 07:35:51;;;;;;;6.67;1.13;;;;;;;5.33;52.97;99930.59;5075897;28;20248;-70
2023/03/11 07:38:19;;;;;;;7.67;1.37;;;;;;;5.39;52.72;99952.91;5074903;28;20218;-70
2023/03/11 07:40:47;;;;;;;4.30;1.40;;;;;;;5.47;52.49;99946.03;5074265;28;20214;-72
2023/03/11 07:43:15;;;;;;;7.07;1.70;;;;;;;5.50;52.48;99953.69;5074514;28;20215;-70
2023/03/11 07:45:42;;;;;;;3.53;0.80;;;;;;;5.58;52.31;99959.16;5074420;28;21267;-70
2023/03/11 07:48:12;;;;;;;5.47;1.40;;;;;;;5.65;51.93;99960.28;5077164;28;20211;-72
2023/03/11 07:50:39;;;;;;;8.00;1.10;;;;;;;5.62;51.77;99959.72;5075828;28;20203;-70
2023/03/11 07:53:07;;;;;;;11.07;1.20;;;;;;;5.77;51.66;99968.13;5079860;28;20221;-71
2023/03/11 07:55:35;;;;;;;4.80;1.17;;;;;;;5.85;51.60;99970.94;5073775;28;20217;-70
2023/03/11 07:58:03;;;;;;;6.40;1.13;;;;;;;5.89;51.14;99972.38;5074316;28;20754;-72
2023/03/11 08:00:30;;;;;;;4.50;1.30;;;;;;;5.99;50.79;99989.03;5072695;28;20245;-66
2023/03/11 08:02:58;;;;;;;5.47;1.27;;;;;;;6.15;50.21;99999.94;5073602;28;20203;-67
2023/03/11 08:05:30;;;;;;;8.03;1.23;;;;;;;6.29;49.29;100004.00;5073915;28;20239;-68
2023/03/11 08:07:57;;;;;;;9.00;1.37;;;;;;;6.31;49.07;100004.72;5076528;28;20206;-66
2023/03/11 08:10:25;;;;;;;5.67;1.30;;;;;;;6.38;49.14;100011.13;5075094;28;20217;-68
2023/03/11 08:12:53;;;;;;;6.47;1.20;;;;;;;6.51;49.10;100000.38;5075807;28;20202;-65
2023/03/11 08:15:20;;;;;;;9.00;1.17;;;;;;;6.70;48.53;100010.94;5074924;28;20207;-64
2023/03/11 08:17:48;;;;;;;7.97;0.93;;;;;;;6.86;47.99;100011.25;5074341;28;20207;-66
2023/03/11 08:20:16;;;;;;;4.73;1.20;;;;;;;7.01;47.83;100017.84;5076345;28;20723;-66
2023/03/11 08:22:45;;;;;;;7.27;1.20;;;;;;;7.33;46.71;100024.66;5074678;28;20208;-64
2023/03/11 08:25:25;;;;;;;5.47;1.30;;;;;;;8.30;45.21;100012.97;5075026;28;20219;-66
2023/03/11 08:27:52;;;;;;;7.43;1.00;;;;;;;9.59;42.26;100004.81;5076054;28;20306;-67
2023/03/11 08:30:21;;;;;;;3.87;1.10;;;;;;;10.80;39.80;100012.72;5072156;28;20217;-68
2023/03/11 08:32:49;;;;;;;7.83;1.30;;;;;;;11.91;37.07;100014.03;5076203;28;20267;-67
2023/03/11 08:35:17;;;;;;;9.53;1.50;;;;;;;11.84;36.85;100019.19;5078940;28;20203;-68
2023/03/11 08:37:46;;;;;;;4.87;1.30;;;;;;;11.23;37.54;100019.63;5075934;28;20245;-66
2023/03/11 08:40:14;;;;;;;7.00;1.30;;;;;;;10.89;38.19;100019.72;5072980;28;20212;-65
2023/03/11 08:42:42;;;;;;;5.73;1.30;;;;;;;10.89;38.59;100017.06;5075216;28;20632;-66
2023/03/11 08:45:11;;;;;;;4.50;1.10;;;;;;;11.60;37.59;100017.34;5073891;28;20742;-64
2023/03/11 08:47:39;;;;;;;7.83;1.23;;;;;;;12.80;35.32;100019.13;5071401;28;20249;-68
2023/03/11 08:50:12;;;;;;;6.30;1.03;;;;;;;13.56;33.99;100019.16;5071672;28;20242;-67
2023/03/11 08:52:40;;;;;;;6.07;1.00;;;;;;;14.22;32.71;100022.09;5074637;28;20223;-70
2023/03/11 08:55:13;;;;;;;4.87;0.90;;;;;;;15.21;31.30;100026.94;5071862;28;20209;-69
2023/03/11 08:57:41;;;;;;;7.17;1.20;;;;;;;15.38;31.06;100035.53;5072857;28;20226;-68
2023/03/11 09:00:10;;;;;;;7.00;1.20;;;;;;;15.53;29.94;100040.81;5073741;28;20218;-70
2023/03/11 09:02:40;;;;;;;5.70;1.20;;;;;;;16.27;28.63;100034.06;5073075;28;20218;-67
2023/03/11 09:05:08;;;;;;;5.50;1.33;;;;;;;17.40;27.24;100030.91;5075662;28;20234;-69
2023/03/11 09:07:36;;;;;;;2.53;0.80;;;;;;;18.88;25.25;100030.44;5073188;28;20235;-71
2023/03/11 09:10:05;;;;;;;6.30;1.47;;;;;;;20.26;23.56;100026.03;5073917;28;20203;-66
2023/03/11 09:12:34;;;;;;;5.23;1.03;;;;;;;22.40;22.24;100028.94;5074628;28;20210;-69
2023/03/11 09:15:01;;;;;;;5.63;1.00;;;;;;;23.37;20.67;100015.56;5073336;28;20218;-68
2023/03/11 09:17:29;;;;;;;4.60;1.07;;;;;;;23.43;20.16;100029.97;5072232;28;20198;-72
2023/03/11 09:19:57;;;;;;;6.93;1.50;;;;;;;22.94;20.64;100023.38;5073376;28;20311;-72
2023/03/11 09:22:25;;;;;;;4.35;0.93;;;;;;;22.58;21.27;100028.00;5071845;28;20225;-72
2023/03/11 09:24:53;;;;;;;4.05;1.10;;;;;;;22.96;21.14;100023.94;5074193;28;20271;-71
2023/03/11 09:27:20;;;;;;;5.40;1.52;;;;;;;22.74;21.34;100019.19;5072388;28;20235;-70
2023/03/11 09:29:49;;;;;;;6.65;1.48;;;;;;;23.13;20.42;100027.53;5073032;28;20218;-72
2023/03/11 09:32:17;;;;;;;7.57;1.30;;;;;;;23.04;19.99;100037.09;5074964;28;20226;-72
2023/03/11 09:34:46;;;;;;;6.35;1.08;;;;;;;22.12;20.74;100045.03;5073572;28;20369;-70
2023/03/11 09:37:14;;;;;;;4.30;1.27;;;;;;;20.99;21.83;100034.19;5074931;28;20286;-69
2023/03/11 09:39:41;;;;;;;3.53;1.25;;;;;;;20.73;22.55;100023.72;5074071;28;20211;-70
2023/03/11 09:42:19;;;;;;;6.28;1.23;;;;;;;21.53;22.21;100029.75;5073481;28;20217;-72
2023/03/11 09:44:59;;;;;;;4.72;1.23;;;;;;;22.28;21.28;100033.53;5074879;28;20533;-71
2023/03/11 09:47:43;;;;;;;3.17;1.05;;;;;;;24.01;19.55;100021.56;5075698;28;20241;-71
2023/03/11 09:50:20;;;;;;;5.30;1.50;;;;;;;27.23;17.27;100017.91;5077596;28;20215;-71
2023/03/11 09:52:58;;;;;;;5.70;1.52;;;;;;;30.12;15.30;100011.56;5075946;28;20234;-69
2023/03/11 09:55:39;;;;;;;2.90;1.17;;;;;;;32.04;14.04;99992.56;5068707;28;20221;-70
2023/03/11 09:58:13;;;;;;;5.95;1.27;;;;;;;33.21;12.99;99999.34;5073472;28;20216;-71
2023/03/11 10:00:43;;;;;;;5.25;1.63;;;;;;;31.23;13.49;100012.22;5075249;28;20209;-69
2023/03/11 10:03:27;;;;;;;9.73;1.58;;;;;;;29.07;14.97;100009.28;5076561;28;20294;-71
2023/03/11 10:06:01;;;;;;;7.28;1.73;;;;;;;29.92;14.68;100004.34;5076770;28;20346;-72
2023/03/11 10:08:34;;;;;;;3.60;1.23;;;;;;;30.78;14.31;100013.63;5077869;28;20206;-70
2023/03/11 10:11:10;;;;;;;9.95;1.58;;;;;;;30.00;14.68;100009.22;5076904;28;20215;-71
2023/03/11 10:13:44;;;;;;;6.93;1.20;;;;;;;26.42;16.41;100021.06;5078467;28;20214;-71
2023/03/11 10:16:22;;;;;;;6.45;1.40;;;;;;;22.48;19.25;100033.16;5079479;28;20206;-71
2023/03/11 10:18:57;;;;;;;4.25;1.20;;;;;;;19.53;21.66;100034.69;5076642;28;20223;-72
2023/03/11 10:21:37;;;;;;;4.55;1.00;;;;;;;17.16;23.48;100039.47;5076361;28;20291;-72
2023/03/11 10:24:18;;;;;;;3.35;1.00;;;;;;;15.48;25.67;100035.22;5078832;28;21778;-71
2023/03/11 10:26:51;;;;;;;6.83;1.27;;;;;;;15.98;26.75;100032.41;5077331;28;20341;-75
2023/03/11 10:29:23;;;;;;;5.23;1.33;;;;;;;18.45;24.56;100034.69;5079779;28;20213;-70
2023/03/11 10:31:57;;;;;;;6.13;1.40;;;;;;;20.00;22.32;100026.25;5075545;28;20551;-73
2023/03/11 10:34:31;;;;;;;2.60;1.20;;;;;;;18.51;23.78;100041.88;5075368;28;20238;-73
2023/03/11 10:37:02;;;;;;;4.70;1.47;;;;;;;16.91;25.03;100048.03;5075202;28;20235;-71
2023/03/11 10:39:32;;;;;;;4.43;1.07;;;;;;;15.38;26.84;100055.06;5072976;28;20326;-71
2023/03/11 10:42:02;;;;;;;4.67;1.23;;;;;;;14.26;27.65;100052.72;5073490;28;20217;-71
2023/03/11 10:44:34;;;;;;;8.90;1.33;;;;;;;13.56;28.56;100055.63;5076854;28;20199;-67
2023/03/11 10:47:04;;;;;;;9.63;1.13;;;;;;;13.47;29.89;100057.53;5076357;28;21979;-66
2023/03/11 10:49:32;;;;;;;11.40;1.00;;;;;;;14.65;29.40;100048.00;5073952;28;20202;-65
2023/03/11 10:52:03;;;;;;;5.47;1.00;;;;;;;16.40;27.02;100038.69;5074081;28;20685;-65
2023/03/11 10:54:36;;;;;;;4.33;0.83;;;;;;;19.31;22.10;100035.19;5076244;28;20886;-65
2023/03/11 10:57:18;;;;;;;4.27;1.00;;;;;;;21.51;19.97;100037.25;5075305;28;20676;-66
2023/03/11 10:59:49;;;;;;;5.53;0.80;;;;;;;21.58;20.02;100040.66;5073374;28;20206;-66
2023/03/11 11:02:25;;;;;;;3.97;0.93;;;;;;;20.89;20.35;100040.09;5077491;28;20674;-73
2023/03/11 11:05:08;;;;;;;6.10;0.80;;;;;;;19.31;21.45;100045.97;5077770;28;20206;-71
2023/03/11 11:07:38;;;;;;;3.00;0.90;;;;;;;17.35;22.98;100054.81;5076651;28;20231;-72
2023/03/11 11:10:19;;;;;;;3.77;1.10;;;;;;;15.54;25.36;100059.34;5074568;28;20210;-71
2023/03/11 11:12:54;;;;;;;4.87;1.20;;;;;;;14.11;27.19;100065.19;5073926;28;20213;-71
2023/03/11 11:15:25;;;;;;;6.83;1.20;;;;;;;13.02;29.34;100065.41;5074957;28;20214;-71
2023/03/11 11:17:56;;;;;;;5.10;1.30;;;;;;;12.23;30.13;100063.66;5076517;28;20232;-71
2023/03/11 11:20:25;;;;;;;5.37;0.80;;;;;;;11.73;31.00;100064.66;5074032;28;20217;-71
2023/03/11 11:22:55;;;;;;;2.73;0.90;;;;;;;11.41;31.85;100068.09;5073876;28;20226;-70
2023/03/11 11:25:26;;;;;;;5.27;1.10;;;;;;;11.27;31.68;100063.41;5074487;28;20233;-72
2023/03/11 11:27:55;;;;;;;4.57;1.00;;;;;;;11.30;31.63;100071.06;5075251;28;20288;-71
2023/03/11 11:30:24;;;;;;;2.60;0.63;;;;;;;12.07;30.81;100060.03;5076471;28;20213;-72
2023/03/11 11:32:54;;;;;;;2.47;0.77;;;;;;;15.57;27.34;100053.63;5076973;28;20702;-70
2023/03/11 11:35:25;;;;;;;6.03;0.80;;;;;;;18.42;22.73;100055.53;5076349;28;20222;-72
2023/03/11 11:37:59;;;;;;;3.33;0.83;;;;;;;19.43;22.34;100045.06;5075805;28;20238;-71
2023/03/11 11:40:30;;;;;;;2.63;1.10;;;;;;;20.78;20.88;100042.72;5073902;28;20215;-71
2023/03/11 11:43:03;;;;;;;2.40;0.70;;;;;;;21.61;20.57;100032.94;5071393;28;20215;-72
2023/03/11 11:45:37;;;;;;;2.60;0.97;;;;;;;21.97;19.19;100042.78;5073171;28;20211;-70
2023/03/11 11:48:14;;;;;;;3.33;0.80;;;;;;;21.64;20.04;100031.63;5072561;28;20230;-75